createdAt,value
2023-03-25T00:00:39.883Z,100300.03
2023-03-25T00:03:22.676Z,100296.19
2023-03-25T00:05:51.041Z,100297.34
2023-03-25T00:08:18.803Z,100288.22
2023-03-25T00:10:46.702Z,100290.75
2023-03-25T00:13:14.366Z,100294.47
2023-03-25T00:15:46.194Z,100285.09
2023-03-25T00:18:14.732Z,100288.00
2023-03-25T00:20:46.321Z,100285.09
2023-03-25T00:23:13.924Z,100284.72
2023-03-25T00:25:42.141Z,100278.22
2023-03-25T00:28:09.802Z,100284.22
2023-03-25T00:30:38.570Z,100287.94
2023-03-25T00:33:06.530Z,100282.78
2023-03-25T00:35:36.271Z,100279.38
2023-03-25T00:38:04.130Z,100278.69
2023-03-25T00:40:37.168Z,100276.78
2023-03-25T00:43:05.463Z,100275.78
2023-03-25T00:45:34.429Z,100272.06
2023-03-25T00:48:02.113Z,100268.97
2023-03-25T00:50:30.319Z,100272.84
2023-03-25T00:52:57.901Z,100261.81
2023-03-25T00:55:25.851Z,100264.75
2023-03-25T00:57:53.458Z,100264.44
2023-03-25T01:00:21.364Z,100261.78
2023-03-25T01:02:49.754Z,100257.91
2023-03-25T01:05:18.317Z,100254.91
2023-03-25T01:07:49.937Z,100246.19
2023-03-25T01:10:18.222Z,100245.06
2023-03-25T01:12:46.956Z,100233.91
2023-03-25T01:15:15.204Z,100235.34
2023-03-25T01:17:42.893Z,100230.59
2023-03-25T01:20:11.049Z,100232.41
2023-03-25T01:22:38.634Z,100234.56
2023-03-25T01:25:06.936Z,100229.53
2023-03-25T01:27:34.494Z,100221.16
2023-03-25T01:30:02.519Z,100220.47
2023-03-25T01:32:30.125Z,100216.84
2023-03-25T01:34:58.047Z,100218.53
2023-03-25T01:37:25.892Z,100213.72
2023-03-25T01:39:53.786Z,100213.25
2023-03-25T01:42:21.450Z,100217.06
2023-03-25T01:44:52.850Z,100219.47
2023-03-25T01:47:20.842Z,100204.69
2023-03-25T01:49:50.581Z,100212.28
2023-03-25T01:52:25.471Z,100208.72
2023-03-25T01:54:55.364Z,100202.59
2023-03-25T01:57:24.359Z,100203.72
2023-03-25T01:59:54.679Z,100195.53
2023-03-25T02:02:25.297Z,100188.56
2023-03-25T02:04:59.734Z,100183.19
2023-03-25T02:07:31.192Z,100169.00
2023-03-25T02:10:04.961Z,100169.31
2023-03-25T02:12:32.775Z,100168.84
2023-03-25T02:15:02.766Z,100174.34
2023-03-25T02:17:39.410Z,100171.63
2023-03-25T02:20:11.361Z,100162.78
2023-03-25T02:22:42.252Z,100156.63
2023-03-25T02:25:10.920Z,100159.75
2023-03-25T02:27:46.184Z,100152.91
2023-03-25T02:30:34.293Z,100152.97
2023-03-25T02:33:17.310Z,100150.16
2023-03-25T02:36:00.854Z,100148.03
2023-03-25T02:38:38.447Z,100148.00
2023-03-25T02:41:15.623Z,100141.81
2023-03-25T02:44:12.655Z,100145.06
2023-03-25T02:46:54.730Z,100148.81
2023-03-25T02:49:29.053Z,100145.34
2023-03-25T02:52:04.802Z,100150.56
2023-03-25T02:54:37.154Z,100144.97
2023-03-25T02:57:08.095Z,100150.81
2023-03-25T02:59:38.716Z,100155.56
2023-03-25T03:02:11.957Z,100149.50
2023-03-25T03:04:48.467Z,100150.72
2023-03-25T03:07:20.190Z,100147.00
2023-03-25T03:09:52.400Z,100142.72
2023-03-25T03:12:33.294Z,100138.06
2023-03-25T03:15:06.585Z,100146.75
2023-03-25T03:17:34.542Z,100136.00
2023-03-25T03:20:02.291Z,100147.59
2023-03-25T03:22:37.804Z,100135.22
2023-03-25T03:25:05.414Z,100151.50
2023-03-25T03:27:35.864Z,100147.47
2023-03-25T03:30:06.707Z,100149.22
2023-03-25T03:32:54.065Z,100152.97
2023-03-25T03:35:38.768Z,100153.63
2023-03-25T03:38:12.847Z,100150.94
2023-03-25T03:40:41.823Z,100160.78
2023-03-25T03:43:13.656Z,100159.34
2023-03-25T03:45:44.324Z,100160.06
2023-03-25T03:48:24.987Z,100171.31
2023-03-25T03:51:19.721Z,100174.72
2023-03-25T03:53:54.468Z,100168.97
2023-03-25T03:56:37.548Z,100169.69
2023-03-25T03:59:11.431Z,100175.94
2023-03-25T04:01:47.504Z,100164.88
2023-03-25T04:04:27.259Z,100167.94
2023-03-25T04:07:01.745Z,100165.72
2023-03-25T04:09:34.283Z,100164.47
2023-03-25T04:12:11.169Z,100167.09
2023-03-25T04:14:39.345Z,100175.84
2023-03-25T04:17:07.133Z,100177.19
2023-03-25T04:19:35.466Z,100178.78
2023-03-25T04:22:03.844Z,100192.94
2023-03-25T04:24:32.143Z,100183.47
2023-03-25T04:27:03.833Z,100175.94
2023-03-25T04:29:32.271Z,100188.88
2023-03-25T04:32:02.683Z,100175.16
2023-03-25T04:34:30.895Z,100175.47
2023-03-25T04:36:58.987Z,100183.41
2023-03-25T04:39:30.063Z,100181.50
2023-03-25T04:41:57.578Z,100180.31
2023-03-25T04:44:26.441Z,100189.88
2023-03-25T04:46:56.221Z,100192.53
2023-03-25T04:49:25.303Z,100197.47
2023-03-25T04:51:55.823Z,100184.91
2023-03-25T04:54:23.890Z,100187.88
2023-03-25T04:56:51.882Z,100179.66
2023-03-25T04:59:21.547Z,100182.94
2023-03-25T05:01:49.462Z,100187.78
2023-03-25T05:04:18.217Z,100194.97
2023-03-25T05:06:47.493Z,100195.06
2023-03-25T05:09:16.490Z,100195.25
2023-03-25T05:11:44.240Z,100194.97
2023-03-25T05:14:14.008Z,100202.44
2023-03-25T05:16:42.024Z,100194.97
2023-03-25T05:19:10.314Z,100201.81
2023-03-25T05:21:38.909Z,100202.00
2023-03-25T05:24:08.528Z,100209.19
2023-03-25T05:26:40.023Z,100205.97
2023-03-25T05:29:09.800Z,100204.34
2023-03-25T05:31:37.446Z,100203.19
2023-03-25T05:34:06.892Z,100207.91
2023-03-25T05:36:35.058Z,100212.31
2023-03-25T05:39:04.819Z,100201.91
2023-03-25T05:41:39.165Z,100202.53
2023-03-25T05:44:08.128Z,100192.63
2023-03-25T05:46:36.285Z,100189.78
2023-03-25T05:49:04.257Z,100191.16
2023-03-25T05:51:34.228Z,100197.78
2023-03-25T05:54:02.476Z,100197.59
2023-03-25T05:56:30.151Z,100194.88
2023-03-25T05:58:58.382Z,100186.22
2023-03-25T06:04:01.353Z,100200.84
2023-03-25T06:06:29.755Z,100193.81
2023-03-25T06:08:59.100Z,100200.81
2023-03-25T06:11:26.747Z,100209.50
2023-03-25T06:13:54.771Z,100204.25
2023-03-25T06:16:23.592Z,100217.94
2023-03-25T06:18:56.594Z,100218.09
2023-03-25T06:21:24.310Z,100217.94
2023-03-25T06:23:54.155Z,100217.44
2023-03-25T06:26:23.096Z,100226.22
2023-03-25T06:28:53.271Z,100235.06
2023-03-25T06:31:28.514Z,100229.56
2023-03-25T06:33:56.883Z,100229.53
2023-03-25T06:36:26.043Z,100228.75
2023-03-25T06:38:54.298Z,100220.72
2023-03-25T06:41:25.975Z,100230.38
2023-03-25T06:44:24.147Z,100222.66
2023-03-25T06:47:24.838Z,100225.34
2023-03-25T06:49:52.800Z,100224.53
2023-03-25T06:52:20.582Z,100218.25
2023-03-25T06:54:48.586Z,100209.81
2023-03-25T06:57:16.843Z,100221.25
2023-03-25T06:59:45.770Z,100212.38
2023-03-25T07:02:14.535Z,100218.75
2023-03-25T07:04:42.573Z,100199.47
2023-03-25T07:07:10.541Z,100223.19
2023-03-25T07:09:38.861Z,100207.16
2023-03-25T07:12:08.974Z,100211.03
2023-03-25T07:14:37.224Z,100218.31
2023-03-25T07:17:04.934Z,100220.56
2023-03-25T07:19:32.884Z,100210.63
2023-03-25T07:22:00.514Z,100217.03
2023-03-25T07:24:28.568Z,100234.44
2023-03-25T07:26:56.214Z,100220.25
2023-03-25T07:29:27.170Z,100231.03
2023-03-25T07:31:54.887Z,100227.00
2023-03-25T07:34:22.971Z,100214.06
2023-03-25T07:36:50.674Z,100250.03
2023-03-25T07:39:19.085Z,100220.13
2023-03-25T07:41:47.585Z,100218.00
2023-03-25T07:44:34.287Z,100213.06
2023-03-25T07:47:01.885Z,100215.50
2023-03-25T07:49:30.126Z,100219.22
2023-03-25T07:51:57.726Z,100219.34
2023-03-25T07:54:25.928Z,100231.69
2023-03-25T07:56:54.726Z,100230.34
2023-03-25T07:59:22.748Z,100224.03
2023-03-25T08:01:50.498Z,100232.50
2023-03-25T08:04:18.586Z,100228.69
2023-03-25T08:06:46.225Z,100218.97
2023-03-25T08:09:14.219Z,100224.97
2023-03-25T08:11:41.807Z,100223.28
2023-03-25T08:14:09.793Z,100235.81
2023-03-25T08:16:37.478Z,100221.25
2023-03-25T08:19:05.449Z,100224.03
2023-03-25T08:21:33.078Z,100220.72
2023-03-25T08:24:05.019Z,100229.47
2023-03-25T08:26:34.038Z,100232.75
2023-03-25T08:29:03.003Z,100240.06
2023-03-25T08:31:31.920Z,100235.97
2023-03-25T08:34:00.727Z,100237.28
2023-03-25T08:36:28.794Z,100243.19
2023-03-25T08:38:56.742Z,100249.56
2023-03-25T08:41:24.976Z,100240.88
2023-03-25T08:43:52.999Z,100257.91
2023-03-25T08:46:20.702Z,100253.31
2023-03-25T08:48:50.300Z,100251.94
2023-03-25T08:51:18.395Z,100262.66
2023-03-25T08:53:46.500Z,100254.44
2023-03-25T08:56:14.143Z,100248.19
2023-03-25T08:58:42.183Z,100258.75
2023-03-25T09:01:09.933Z,100254.88
2023-03-25T09:03:42.478Z,100262.97
2023-03-25T09:06:10.202Z,100273.13
2023-03-25T09:08:38.538Z,100277.69
2023-03-25T09:11:06.193Z,100286.81
2023-03-25T09:13:34.075Z,100266.50
2023-03-25T09:16:01.700Z,100256.25
2023-03-25T09:18:32.200Z,100250.75
2023-03-25T09:21:00.023Z,100268.66
2023-03-25T09:23:27.943Z,100255.03
2023-03-25T09:25:56.830Z,100256.22
2023-03-25T09:28:24.719Z,100242.88
2023-03-25T09:30:52.478Z,100262.19
2023-03-25T09:33:20.794Z,100241.59
2023-03-25T09:35:49.283Z,100244.69
2023-03-25T09:38:17.371Z,100231.97
2023-03-25T09:40:45.227Z,100235.84
2023-03-25T09:43:16.138Z,100234.78
2023-03-25T09:45:45.991Z,100238.63
2023-03-25T09:48:27.757Z,100239.41
2023-03-25T09:50:57.939Z,100249.47
2023-03-25T09:53:29.249Z,100258.00
2023-03-25T09:55:57.051Z,100251.44
2023-03-25T09:58:44.888Z,100242.13
2023-03-25T10:01:16.192Z,100239.03
2023-03-25T10:04:16.943Z,100236.22
2023-03-25T10:06:59.222Z,100224.28
2023-03-25T10:09:35.535Z,100222.69
2023-03-25T10:12:13.168Z,100228.47
2023-03-25T10:14:41.527Z,100220.81
2023-03-25T10:17:27.662Z,100208.50
2023-03-25T10:20:05.410Z,100212.22
2023-03-25T10:22:39.076Z,100211.31
2023-03-25T10:25:14.023Z,100205.72
2023-03-25T10:27:45.433Z,100215.31
2023-03-25T10:30:15.214Z,100198.03
2023-03-25T10:32:42.846Z,100195.78
2023-03-25T10:35:23.159Z,100217.75
2023-03-25T10:37:53.269Z,100198.41
2023-03-25T10:40:27.501Z,100194.41
2023-03-25T10:43:05.325Z,100197.78
2023-03-25T10:45:34.463Z,100201.75
2023-03-25T10:48:09.958Z,100194.72
2023-03-25T10:50:38.797Z,100197.59
2023-03-25T10:53:07.140Z,100198.47
2023-03-25T10:55:36.355Z,100202.00
2023-03-25T10:58:05.121Z,100200.47
2023-03-25T11:00:34.449Z,100201.38
2023-03-25T11:03:02.503Z,100189.44
2023-03-25T11:05:30.697Z,100193.75
2023-03-25T11:08:11.573Z,100188.78
2023-03-25T11:10:48.368Z,100211.50
2023-03-25T11:13:17.632Z,100199.25
2023-03-25T11:15:45.833Z,100193.72
2023-03-25T11:18:31.863Z,100193.81
2023-03-25T11:21:11.994Z,100193.13
2023-03-25T11:23:47.180Z,100173.00
2023-03-25T11:26:25.623Z,100182.03
2023-03-25T11:29:01.452Z,100162.16
2023-03-25T11:31:33.740Z,100160.56
2023-03-25T11:34:13.325Z,100159.47
2023-03-25T11:36:48.218Z,100158.94
2023-03-25T11:39:25.428Z,100132.78
2023-03-25T11:44:52.763Z,100144.84
2023-03-25T11:47:26.338Z,100142.91
2023-03-25T11:49:54.314Z,100144.50
2023-03-25T11:52:38.423Z,100156.16
2023-03-25T11:55:06.391Z,100159.66
2023-03-25T11:57:39.188Z,100149.47
2023-03-25T12:00:29.873Z,100139.63
2023-03-25T12:03:07.024Z,100129.31
2023-03-25T12:05:34.916Z,100135.75
2023-03-25T12:08:16.304Z,100131.22
2023-03-25T12:10:56.563Z,100123.91
2023-03-25T12:13:24.720Z,100118.72
2023-03-25T12:16:08.018Z,100117.56
2023-03-25T12:18:48.674Z,100112.66
2023-03-25T12:21:29.766Z,100114.06
2023-03-25T12:24:17.925Z,100119.88
2023-03-25T12:26:50.566Z,100096.94
2023-03-25T12:29:37.717Z,100105.38
2023-03-25T12:32:15.756Z,100093.88
2023-03-25T12:34:50.277Z,100085.00
2023-03-25T12:37:20.596Z,100091.25
2023-03-25T12:39:58.952Z,100088.06
2023-03-25T12:42:26.574Z,100087.78
2023-03-25T12:45:09.784Z,100105.34
2023-03-25T12:47:43.200Z,100087.53
2023-03-25T12:50:17.498Z,100094.13
2023-03-25T12:52:50.409Z,100091.41
2023-03-25T12:55:21.134Z,100075.91
2023-03-25T12:57:51.454Z,100080.94
2023-03-25T13:00:20.720Z,100068.53
2023-03-25T13:03:03.842Z,100071.94
2023-03-25T13:05:32.107Z,100063.47
2023-03-25T13:08:03.763Z,100062.72
2023-03-25T13:10:34.967Z,100069.78
2023-03-25T13:13:09.233Z,100076.78
2023-03-25T13:15:40.206Z,100067.13
2023-03-25T13:18:13.124Z,100066.38
2023-03-25T13:20:51.675Z,100060.88
2023-03-25T13:23:22.183Z,100052.38
2023-03-25T13:25:59.697Z,100051.69
2023-03-25T13:28:38.770Z,100065.16
2023-03-25T13:31:09.230Z,100042.78
2023-03-25T13:33:38.180Z,100066.22
2023-03-25T13:36:14.536Z,100042.28
2023-03-25T13:38:44.156Z,100047.13
2023-03-25T13:41:14.916Z,100043.63
2023-03-25T13:43:43.201Z,100049.16
2023-03-25T13:46:13.998Z,100034.34
2023-03-25T13:48:46.194Z,100038.50
2023-03-25T13:51:14.184Z,100022.94
2023-03-25T13:53:46.871Z,100033.81
2023-03-25T13:56:26.921Z,100040.09
2023-03-25T13:59:04.491Z,100025.56
2023-03-25T14:01:39.720Z,100029.09
2023-03-25T14:04:26.874Z,100022.81
2023-03-25T14:07:00.979Z,100028.44
2023-03-25T14:09:28.498Z,100017.06
2023-03-25T14:12:02.321Z,100020.44
2023-03-25T14:14:34.546Z,100020.88
2023-03-25T14:17:05.474Z,100013.47
2023-03-25T14:19:38.633Z,100013.31
2023-03-25T14:22:16.110Z,100013.34
2023-03-25T14:24:45.195Z,100013.72
2023-03-25T14:27:25.215Z,100010.22
2023-03-25T14:29:55.605Z,100020.22
2023-03-25T14:32:23.861Z,100017.63
2023-03-25T14:34:51.503Z,100023.47
2023-03-25T14:37:26.307Z,100024.13
2023-03-25T14:39:55.822Z,100021.44
2023-03-25T14:42:29.054Z,100025.28
2023-03-25T14:45:15.724Z,100033.16
2023-03-25T14:47:51.763Z,100030.38
2023-03-25T14:50:22.393Z,100024.41
2023-03-25T14:52:53.434Z,100037.59
2023-03-25T14:55:32.138Z,100034.50
2023-03-25T14:58:06.176Z,100030.53
2023-03-25T15:00:35.776Z,100052.78
2023-03-25T15:03:08.985Z,100030.81
2023-03-25T15:05:37.460Z,100020.78
2023-03-25T15:08:05.433Z,100023.22
2023-03-25T15:10:37.005Z,100031.22
2023-03-25T15:13:23.467Z,100023.09
2023-03-25T15:15:52.545Z,100018.22
2023-03-25T15:18:35.644Z,100039.53
2023-03-25T15:21:09.069Z,100021.44
2023-03-25T15:23:49.296Z,100030.81
2023-03-25T15:26:27.143Z,100022.94
2023-03-25T15:28:58.174Z,100025.56
2023-03-25T15:31:40.967Z,100030.53
2023-03-25T15:34:12.034Z,100032.59
2023-03-25T15:36:47.802Z,100027.34
2023-03-25T15:39:19.122Z,100021.69
2023-03-25T15:42:04.922Z,100029.88
2023-03-25T15:44:51.795Z,100024.53
2023-03-25T15:47:25.278Z,100028.69
2023-03-25T15:50:22.574Z,100032.13
2023-03-25T15:53:08.733Z,100015.50
2023-03-25T15:55:38.783Z,100020.84
2023-03-25T15:58:11.862Z,100028.72
2023-03-25T16:00:45.333Z,100023.91
2023-03-25T16:03:20.088Z,100019.47
2023-03-25T16:05:51.416Z,100022.50
2023-03-25T16:08:32.294Z,100026.50
2023-03-25T16:11:18.784Z,100023.03
2023-03-25T16:13:46.652Z,100024.41
2023-03-25T16:16:17.600Z,100030.28
2023-03-25T16:18:46.934Z,100024.06
2023-03-25T16:21:15.126Z,100028.19
2023-03-25T16:23:42.894Z,100019.97
2023-03-25T16:26:13.525Z,100021.53
2023-03-25T16:28:43.048Z,100015.16
2023-03-25T16:31:34.441Z,100017.81
2023-03-25T16:34:02.439Z,100020.16
2023-03-25T16:36:30.991Z,100013.06
2023-03-25T16:38:58.675Z,100017.47
2023-03-25T16:41:27.587Z,100025.34
2023-03-25T16:43:55.271Z,100034.72
2023-03-25T16:46:23.884Z,100030.28
2023-03-25T16:48:55.087Z,100028.09
2023-03-25T16:51:28.796Z,100026.03
2023-03-25T16:53:59.699Z,100030.28
2023-03-25T16:56:31.370Z,100041.53
2023-03-25T16:59:05.304Z,100040.31
2023-03-25T17:01:38.850Z,100047.19
2023-03-25T17:04:11.978Z,100043.25
2023-03-25T17:06:41.346Z,100040.00
2023-03-25T17:09:13.760Z,100042.13
2023-03-25T17:11:41.903Z,100047.78
2023-03-25T17:14:16.052Z,100049.72
2023-03-25T17:16:46.444Z,100042.34
2023-03-25T17:19:14.943Z,100048.00
2023-03-25T17:22:01.725Z,100058.25
2023-03-25T17:24:37.263Z,100044.69
2023-03-25T17:27:07.914Z,100047.78
2023-03-25T17:29:48.764Z,100053.47
2023-03-25T17:32:18.154Z,100056.41
2023-03-25T17:34:56.099Z,100060.97
2023-03-25T17:37:26.585Z,100061.97
2023-03-25T17:39:54.463Z,100061.16
2023-03-25T17:42:24.979Z,100074.25
2023-03-25T17:44:53.266Z,100067.47
2023-03-25T17:47:21.807Z,100076.84
2023-03-25T17:49:51.509Z,100082.28
2023-03-25T17:52:20.522Z,100080.50
2023-03-25T17:54:48.220Z,100085.50
2023-03-25T17:57:17.410Z,100086.44
2023-03-25T17:59:45.323Z,100082.22
2023-03-25T18:02:14.963Z,100086.44
2023-03-25T18:04:42.798Z,100091.00
2023-03-25T18:07:11.273Z,100090.84
2023-03-25T18:09:39.844Z,100083.16
2023-03-25T18:12:08.035Z,100081.22
2023-03-25T18:14:36.044Z,100079.63
2023-03-25T18:17:04.805Z,100082.34
2023-03-25T18:19:33.832Z,100081.53
2023-03-25T18:22:09.905Z,100089.06
2023-03-25T18:24:38.590Z,100082.88
2023-03-25T18:27:06.965Z,100088.13
2023-03-25T18:29:37.605Z,100091.94
2023-03-25T18:32:06.027Z,100096.72
2023-03-25T18:34:34.957Z,100100.94
2023-03-25T18:37:03.017Z,100103.38
2023-03-25T18:39:32.779Z,100102.59
2023-03-25T18:42:01.294Z,100108.16
2023-03-25T18:44:31.085Z,100116.78
2023-03-25T18:46:59.237Z,100124.19
2023-03-25T18:49:27.621Z,100129.19
2023-03-25T18:51:57.804Z,100131.56
2023-03-25T18:54:25.563Z,100137.38
2023-03-25T18:56:53.648Z,100138.53
2023-03-25T18:59:22.211Z,100136.97
2023-03-25T19:01:50.314Z,100148.31
2023-03-25T19:04:18.606Z,100159.16
2023-03-25T19:06:46.979Z,100155.31
2023-03-25T19:09:18.529Z,100152.59
2023-03-25T19:11:47.353Z,100159.16
2023-03-25T19:14:15.056Z,100150.91
2023-03-25T19:16:57.242Z,100157.19
2023-03-25T19:19:29.357Z,100153.31
2023-03-25T19:21:57.398Z,100150.91
2023-03-25T19:24:25.168Z,100168.34
2023-03-25T19:26:53.268Z,100156.59
2023-03-25T19:29:21.002Z,100160.91
2023-03-25T19:31:49.250Z,100154.16
2023-03-25T19:34:18.102Z,100164.63
2023-03-25T19:36:47.375Z,100167.31
2023-03-25T19:39:16.261Z,100164.94
2023-03-25T19:41:46.939Z,100168.09
2023-03-25T19:44:14.968Z,100162.84
2023-03-25T19:46:43.069Z,100177.66
2023-03-25T19:49:11.009Z,100178.88
2023-03-25T19:51:39.003Z,100175.06
2023-03-25T19:54:06.725Z,100173.94
2023-03-25T19:56:34.856Z,100173.94
2023-03-25T19:59:02.793Z,100176.63
2023-03-25T20:01:31.225Z,100178.41
2023-03-25T20:03:59.008Z,100183.72
2023-03-25T20:06:27.563Z,100179.47
2023-03-25T20:08:55.287Z,100175.66
2023-03-25T20:11:23.388Z,100185.66
2023-03-25T20:13:51.142Z,100191.06
2023-03-25T20:16:20.970Z,100208.91
2023-03-25T20:18:49.653Z,100209.09
2023-03-25T20:21:17.712Z,100215.34
2023-03-25T20:23:45.388Z,100225.41
2023-03-25T20:26:13.513Z,100237.06
2023-03-25T20:28:42.197Z,100238.91
2023-03-25T20:31:15.389Z,100241.25
2023-03-25T20:33:43.142Z,100242.69
2023-03-25T20:36:11.500Z,100243.38
2023-03-25T20:38:41.931Z,100230.09
2023-03-25T20:41:12.964Z,100239.94
2023-03-25T20:43:40.784Z,100247.19
2023-03-25T20:46:10.682Z,100240.16
2023-03-25T20:48:38.495Z,100242.84
2023-03-25T20:51:08.098Z,100263.28
2023-03-25T20:53:36.454Z,100254.97
2023-03-25T20:56:05.207Z,100251.63
2023-03-25T20:58:33.807Z,100248.09
2023-03-25T21:01:03.199Z,100254.13
2023-03-25T21:03:31.171Z,100249.94
2023-03-25T21:06:07.442Z,100253.47
2023-03-25T21:08:41.671Z,100258.59
2023-03-25T21:11:09.650Z,100256.91
2023-03-25T21:13:37.370Z,100255.91
2023-03-25T21:16:05.840Z,100262.13
2023-03-25T21:18:33.530Z,100253.84
2023-03-25T21:21:02.509Z,100267.81
2023-03-25T21:23:31.659Z,100262.75
2023-03-25T21:26:01.068Z,100265.53
2023-03-25T21:28:29.509Z,100273.78
2023-03-25T21:31:03.587Z,100266.19
2023-03-25T21:33:37.441Z,100273.13
2023-03-25T21:36:07.279Z,100270.31
2023-03-25T21:38:35.748Z,100274.63
2023-03-25T21:41:05.101Z,100281.38
2023-03-25T21:43:33.573Z,100288.28
2023-03-25T21:46:05.546Z,100274.69
2023-03-25T21:48:34.694Z,100273.84
2023-03-25T21:51:02.669Z,100275.31
2023-03-25T21:53:34.551Z,100272.09
2023-03-25T21:56:06.032Z,100269.91
2023-03-25T21:58:36.706Z,100270.78
2023-03-25T22:01:06.294Z,100267.16
2023-03-25T22:03:37.391Z,100267.88
2023-03-25T22:06:05.742Z,100255.13
2023-03-25T22:08:33.643Z,100254.59
2023-03-25T22:11:05.723Z,100249.16
2023-03-25T22:13:33.686Z,100242.09
2023-03-25T22:16:01.784Z,100240.53
2023-03-25T22:18:29.512Z,100249.00
2023-03-25T22:21:11.281Z,100250.59
2023-03-25T22:23:40.508Z,100241.31
2023-03-25T22:26:10.290Z,100242.75
2023-03-25T22:28:38.292Z,100244.03
2023-03-25T22:31:13.777Z,100245.94
2023-03-25T22:33:41.716Z,100254.41
2023-03-25T22:36:14.444Z,100260.38
2023-03-25T22:38:44.563Z,100249.31
2023-03-25T22:41:13.605Z,100257.31
2023-03-25T22:43:41.942Z,100264.84
2023-03-25T22:46:10.634Z,100255.09
2023-03-25T22:48:39.673Z,100255.91
2023-03-25T22:51:08.661Z,100253.34
2023-03-25T22:53:36.559Z,100249.88
2023-03-25T22:56:04.922Z,100248.16
2023-03-25T22:58:32.734Z,100244.50
2023-03-25T23:01:01.979Z,100256.94
2023-03-25T23:03:29.894Z,100245.91
2023-03-25T23:06:08.076Z,100246.97
2023-03-25T23:08:37.507Z,100256.25
2023-03-25T23:11:11.711Z,100246.75
2023-03-25T23:13:42.304Z,100249.56
2023-03-25T23:16:12.084Z,100242.66
2023-03-25T23:18:42.275Z,100248.31
2023-03-25T23:21:14.315Z,100245.91
2023-03-25T23:23:52.698Z,100242.16
2023-03-25T23:26:25.079Z,100236.78
2023-03-25T23:28:53.876Z,100254.34
2023-03-25T23:31:28.710Z,100255.53
2023-03-25T23:33:58.008Z,100253.41
2023-03-25T23:36:26.790Z,100267.06
2023-03-25T23:38:54.692Z,100270.28
2023-03-25T23:41:23.199Z,100272.03
2023-03-25T23:43:51.386Z,100276.72
2023-03-25T23:46:21.565Z,100281.66
2023-03-25T23:48:49.669Z,100287.88
2023-03-25T23:51:20.509Z,100292.78
2023-03-25T23:53:49.379Z,100301.81
2023-03-25T23:56:18.923Z,100293.94
2023-03-25T23:58:46.467Z,100300.28
